createdAt,value
2017-11-30T00:01:10.411Z,100173.84
2017-11-30T00:03:43.489Z,100174.83
2017-11-30T00:06:18.179Z,100172.53
2017-11-30T00:08:51.889Z,100165.05
2017-11-30T00:11:22.987Z,100167.38
2017-11-30T00:13:56.377Z,100173.81
2017-11-30T00:16:29.478Z,100169.55
2017-11-30T00:19:03.750Z,100172.32
2017-11-30T00:21:36.507Z,100167.71
2017-11-30T00:24:10.905Z,100164.16
2017-11-30T00:26:42.177Z,100160.37
2017-11-30T00:29:13.677Z,100160.67
2017-11-30T00:31:46.616Z,100161.23
2017-11-30T00:34:20.435Z,100153.72
2017-11-30T00:36:56.626Z,100158.70
2017-11-30T00:39:31.916Z,100154.54
2017-11-30T00:42:11.515Z,100145.46
2017-11-30T00:44:47.936Z,100153.43
2017-11-30T00:47:21.421Z,100157.93
2017-11-30T00:49:56.449Z,100156.04
2017-11-30T00:52:30.812Z,100156.73
2017-11-30T00:55:04.412Z,100157.47
2017-11-30T00:57:37.005Z,100160.13
2017-11-30T01:00:11.006Z,100158.13
2017-11-30T01:02:45.702Z,100150.88
2017-11-30T01:05:17.924Z,100152.17
2017-11-30T01:07:50.821Z,100156.94
2017-11-30T01:10:22.816Z,100147.18
2017-11-30T01:12:57.324Z,100146.16
2017-11-30T01:15:29.408Z,100152.95
2017-11-30T01:18:07.417Z,100155.96
2017-11-30T01:20:45.142Z,100155.86
2017-11-30T01:23:25.438Z,100144.39
2017-11-30T01:26:00.513Z,100140.19
2017-11-30T01:28:31.550Z,100137.28
2017-11-30T01:31:05.307Z,100133.49
2017-11-30T01:33:39.066Z,100126.06
2017-11-30T01:36:12.541Z,100136.01
2017-11-30T01:38:45.796Z,100126.09
2017-11-30T01:41:18.765Z,100125.34
2017-11-30T01:43:52.501Z,100125.37
2017-11-30T01:46:26.698Z,100121.77
2017-11-30T01:49:00.104Z,100122.56
2017-11-30T01:51:32.803Z,100122.37
2017-11-30T01:54:07.397Z,100132.05
2017-11-30T01:56:39.792Z,100134.84
2017-11-30T01:59:11.882Z,100140.01
2017-11-30T02:01:45.704Z,100137.03
2017-11-30T02:04:16.945Z,100142.13
2017-11-30T02:06:49.437Z,100144.10
2017-11-30T02:09:23.227Z,100144.86
2017-11-30T02:11:56.212Z,100140.20
2017-11-30T02:14:30.217Z,100143.78
2017-11-30T02:20:42.715Z,100136.19
2017-11-30T02:23:16.418Z,100133.56
2017-11-30T02:25:52.619Z,100135.30
2017-11-30T02:28:34.346Z,100130.76
2017-11-30T02:31:27.122Z,100133.18
2017-11-30T02:34:11.328Z,100082.66
2017-11-30T02:36:50.726Z,100131.38
2017-11-30T02:39:25.438Z,100132.80
2017-11-30T02:45:16.748Z,100123.27
2017-11-30T02:47:53.523Z,100109.47
2017-11-30T02:50:39.338Z,100106.19
2017-11-30T02:53:12.836Z,100114.06
2017-11-30T02:55:44.957Z,100107.36
2017-11-30T02:58:17.362Z,100109.50
2017-11-30T03:00:53.245Z,100101.75
2017-11-30T03:03:27.186Z,100093.17
2017-11-30T03:06:04.457Z,100090.39
2017-11-30T03:09:11.736Z,100090.33
2017-11-30T03:11:46.562Z,100086.77
2017-11-30T03:14:18.983Z,100089.41
2017-11-30T03:16:53.266Z,100082.56
2017-11-30T03:19:28.084Z,100085.36
2017-11-30T03:22:07.182Z,100079.19
2017-11-30T03:24:38.986Z,100085.31
2017-11-30T03:27:12.282Z,100075.16
2017-11-30T03:29:44.406Z,100077.59
2017-11-30T03:32:16.401Z,100077.36
2017-11-30T03:34:50.711Z,100072.05
2017-11-30T03:37:22.509Z,100076.14
2017-11-30T03:39:54.403Z,100073.01
2017-11-30T03:42:28.919Z,100080.20
2017-11-30T03:45:03.217Z,100086.95
2017-11-30T03:47:36.470Z,100079.73
2017-11-30T03:50:09.613Z,100075.67
2017-11-30T03:52:42.520Z,100079.34
2017-11-30T03:55:14.823Z,100080.17
2017-11-30T03:57:47.826Z,100084.98
2017-11-30T04:00:21.225Z,100075.91
2017-11-30T04:02:53.507Z,100067.84
2017-11-30T04:05:26.524Z,100072.11
2017-11-30T04:08:02.364Z,100068.27
2017-11-30T04:10:35.757Z,100051.73
2017-11-30T04:13:08.161Z,100056.54
2017-11-30T04:18:18.474Z,100054.39
2017-11-30T04:20:50.262Z,100060.17
2017-11-30T04:23:23.081Z,100057.09
2017-11-30T04:25:56.394Z,100049.92
2017-11-30T04:28:29.149Z,100045.83
2017-11-30T04:31:01.456Z,100055.84
2017-11-30T04:33:34.418Z,100048.08
2017-11-30T04:36:07.040Z,100045.67
2017-11-30T04:38:39.041Z,100038.62
2017-11-30T04:41:11.776Z,100038.66
2017-11-30T04:43:43.645Z,100035.66
2017-11-30T04:46:16.632Z,100035.64
2017-11-30T04:48:47.915Z,100039.53
2017-11-30T04:51:19.744Z,100046.00
2017-11-30T04:53:52.344Z,100036.23
2017-11-30T04:56:27.042Z,100042.90
2017-11-30T04:58:59.329Z,100038.60
2017-11-30T05:01:33.431Z,100027.16
2017-11-30T05:04:05.324Z,100032.70
2017-11-30T05:06:37.967Z,100031.93
2017-11-30T05:09:11.230Z,100028.60
2017-11-30T05:11:44.345Z,100033.31
2017-11-30T05:14:19.177Z,100033.41
2017-11-30T05:16:54.445Z,100009.72
2017-11-30T05:19:32.522Z,100028.50
2017-11-30T05:22:12.528Z,100031.20
2017-11-30T05:24:42.923Z,100041.00
2017-11-30T05:27:15.239Z,100036.30
2017-11-30T05:29:48.643Z,100042.05
2017-11-30T05:32:20.270Z,100032.81
2017-11-30T05:34:55.515Z,100033.59
2017-11-30T05:37:27.907Z,100030.22
2017-11-30T05:40:00.992Z,100025.14
2017-11-30T05:42:39.914Z,100022.62
2017-11-30T05:45:21.705Z,100023.73
2017-11-30T05:47:55.900Z,100025.24
2017-11-30T05:50:29.603Z,100027.16
2017-11-30T05:53:04.988Z,100022.46
2017-11-30T05:55:37.502Z,100021.73
2017-11-30T05:58:15.203Z,100016.94
2017-11-30T06:00:49.385Z,100021.39
2017-11-30T06:03:23.910Z,100026.74
2017-11-30T06:05:59.911Z,100016.28
2017-11-30T06:08:30.631Z,100013.72
2017-11-30T06:11:01.462Z,100017.80
2017-11-30T06:13:35.514Z,100014.44
2017-11-30T06:16:19.668Z,100025.06
2017-11-30T06:18:51.814Z,100017.89
2017-11-30T06:21:24.710Z,100010.83
2017-11-30T06:23:57.099Z,100012.18
2017-11-30T06:26:29.005Z,100008.89
2017-11-30T06:29:00.795Z,100005.29
2017-11-30T06:31:33.307Z,100007.62
2017-11-30T06:34:05.908Z,100008.56
2017-11-30T06:36:38.514Z,100002.66
2017-11-30T06:39:11.040Z,100004.28
2017-11-30T06:41:43.196Z,100000.92
2017-11-30T06:44:21.414Z,99999.39
2017-11-30T06:46:56.009Z,99999.95
2017-11-30T06:49:28.501Z,100006.92
2017-11-30T06:52:00.702Z,99999.75
2017-11-30T06:54:34.802Z,100003.63
2017-11-30T06:57:08.213Z,100002.75
2017-11-30T06:59:43.311Z,100001.38
2017-11-30T07:02:16.846Z,100003.33
2017-11-30T07:04:50.021Z,99996.66
2017-11-30T07:07:21.517Z,100004.29
2017-11-30T07:09:53.918Z,100002.78
2017-11-30T07:12:25.661Z,100000.62
2017-11-30T07:14:58.958Z,99980.09
2017-11-30T07:22:32.550Z,100004.20
2017-11-30T07:25:09.484Z,99969.77
2017-11-30T07:27:42.889Z,100009.14
2017-11-30T07:30:18.252Z,100007.96
2017-11-30T07:32:53.859Z,100018.38
2017-11-30T07:35:33.259Z,100014.31
2017-11-30T07:38:07.155Z,100014.89
2017-11-30T07:40:40.497Z,100010.60
2017-11-30T07:43:14.076Z,100010.50
2017-11-30T07:45:46.970Z,100012.16
2017-11-30T07:48:19.468Z,100009.64
2017-11-30T07:50:51.545Z,100020.39
2017-11-30T07:53:24.063Z,100004.81
2017-11-30T07:55:55.891Z,100026.95
2017-11-30T07:58:28.153Z,100022.17
2017-11-30T08:01:03.647Z,100025.12
2017-11-30T08:03:36.642Z,100028.48
2017-11-30T08:06:13.132Z,100025.75
2017-11-30T08:08:45.339Z,100032.45
2017-11-30T08:11:16.951Z,100026.08
2017-11-30T08:13:49.049Z,100023.62
2017-11-30T08:16:24.449Z,100023.73
2017-11-30T08:18:56.246Z,100017.98
2017-11-30T08:21:29.169Z,100022.25
2017-11-30T08:24:02.670Z,100023.70
2017-11-30T08:26:36.574Z,100018.38
2017-11-30T08:29:14.000Z,100007.35
2017-11-30T08:31:49.623Z,100004.31
2017-11-30T08:34:24.012Z,100014.30
2017-11-30T08:37:01.271Z,100010.55
2017-11-30T08:39:37.309Z,100010.52
2017-11-30T08:42:13.999Z,100011.45
2017-11-30T08:44:49.569Z,99999.30
2017-11-30T08:47:25.128Z,99983.20
2017-11-30T08:49:58.113Z,99998.12
2017-11-30T08:52:37.545Z,99997.56
2017-11-30T08:55:11.896Z,100004.64
2017-11-30T08:58:06.404Z,100005.59
2017-11-30T09:00:48.172Z,99993.13
2017-11-30T09:03:37.443Z,99991.95
2017-11-30T09:06:11.865Z,99994.22
2017-11-30T09:08:44.739Z,99986.40
2017-11-30T09:11:16.671Z,99999.81
2017-11-30T09:14:05.689Z,100000.77
2017-11-30T09:16:41.870Z,100004.09
2017-11-30T09:19:21.178Z,99998.86
2017-11-30T09:21:53.272Z,99998.91
2017-11-30T09:24:24.999Z,99999.42
2017-11-30T09:26:57.179Z,100001.30
2017-11-30T09:29:31.183Z,99989.47
2017-11-30T09:32:08.460Z,99990.73
2017-11-30T09:34:41.592Z,99995.80
2017-11-30T09:37:19.162Z,99998.16
2017-11-30T09:39:49.979Z,99992.42
2017-11-30T09:42:22.781Z,99993.20
2017-11-30T09:45:00.562Z,99991.45
2017-11-30T09:47:36.705Z,99994.02
2017-11-30T09:50:10.782Z,99992.47
2017-11-30T09:52:45.910Z,99991.27
2017-11-30T09:55:17.868Z,99982.48
2017-11-30T09:57:51.758Z,99987.10
2017-11-30T10:00:28.626Z,99976.49
2017-11-30T10:02:59.147Z,99983.20
2017-11-30T10:05:31.993Z,99976.05
2017-11-30T10:08:06.019Z,99978.83
2017-11-30T10:10:38.547Z,99973.30
2017-11-30T10:13:10.430Z,99966.21
2017-11-30T10:15:42.625Z,99964.11
2017-11-30T10:18:15.656Z,99967.72
2017-11-30T10:20:56.889Z,99967.50
2017-11-30T10:23:45.611Z,99970.30
2017-11-30T10:26:16.943Z,99966.34
2017-11-30T10:28:49.148Z,99965.33
2017-11-30T10:31:22.835Z,99961.15
2017-11-30T10:34:04.430Z,99962.45
2017-11-30T10:36:44.653Z,99957.73
2017-11-30T10:39:23.140Z,99959.20
2017-11-30T10:41:55.445Z,99953.87
2017-11-30T10:44:30.117Z,99953.55
2017-11-30T10:47:04.601Z,99951.03
2017-11-30T10:52:20.870Z,99943.89
2017-11-30T10:54:58.522Z,99942.63
2017-11-30T10:57:31.426Z,99937.92
2017-11-30T11:00:17.183Z,99941.09
2017-11-30T11:02:50.708Z,99943.13
2017-11-30T11:05:23.906Z,99939.14
2017-11-30T11:07:54.736Z,99934.13
2017-11-30T11:10:26.925Z,99929.98
2017-11-30T11:13:07.319Z,99930.98
2017-11-30T11:15:43.019Z,99920.84
2017-11-30T11:18:15.191Z,99927.63
2017-11-30T11:20:49.105Z,99921.40
2017-11-30T11:23:30.389Z,99923.30
2017-11-30T11:28:29.355Z,99892.91
2017-11-30T11:31:02.801Z,99918.12
2017-11-30T11:33:35.405Z,99915.19
2017-11-30T11:36:07.695Z,99921.23
2017-11-30T11:41:30.532Z,99921.50
2017-11-30T11:44:08.934Z,99914.94
2017-11-30T11:46:41.885Z,99910.13
2017-11-30T11:49:14.348Z,99913.61
2017-11-30T11:51:48.683Z,99905.20
2017-11-30T11:54:44.952Z,99908.98
2017-11-30T11:57:21.573Z,99862.17
2017-11-30T11:59:55.747Z,99906.02
2017-11-30T12:02:40.591Z,99901.32
2017-11-30T12:05:16.617Z,99903.72
2017-11-30T12:07:54.040Z,99901.13
2017-11-30T12:10:44.646Z,99909.14
2017-11-30T12:13:20.148Z,99902.66
2017-11-30T12:15:52.476Z,99906.41
2017-11-30T12:18:33.525Z,99905.67
2017-11-30T12:21:21.968Z,99898.48
2017-11-30T12:23:58.367Z,99886.66
2017-11-30T12:26:40.538Z,99894.69
2017-11-30T12:29:25.252Z,99896.99
2017-11-30T12:32:07.668Z,99895.96
2017-11-30T12:34:47.902Z,99900.38
2017-11-30T12:37:24.445Z,99900.23
2017-11-30T12:40:15.857Z,99898.77
2017-11-30T12:42:48.153Z,99890.90
2017-11-30T12:45:25.052Z,99898.61
2017-11-30T12:50:48.180Z,99891.53
2017-11-30T12:53:25.627Z,99898.11
2017-11-30T12:55:58.461Z,99886.67
2017-11-30T12:58:33.756Z,99893.54
2017-11-30T13:01:10.490Z,99879.36
2017-11-30T13:03:43.805Z,99876.99
2017-11-30T13:06:15.806Z,99892.34
2017-11-30T13:08:47.468Z,99889.20
2017-11-30T13:11:19.872Z,99886.53
2017-11-30T13:13:53.364Z,99886.80
2017-11-30T13:16:39.577Z,99887.37
2017-11-30T13:19:14.162Z,99887.50
2017-11-30T13:21:47.467Z,99884.61
2017-11-30T13:24:22.488Z,99899.00
2017-11-30T13:26:56.675Z,99886.53
2017-11-30T13:32:08.347Z,99879.69
2017-11-30T13:34:42.240Z,99898.54
2017-11-30T13:37:13.301Z,99896.34
2017-11-30T13:40:07.384Z,99898.80
2017-11-30T13:42:39.849Z,99901.33
2017-11-30T13:48:24.274Z,99902.37
2017-11-30T13:51:00.929Z,99890.20
2017-11-30T13:53:36.892Z,99901.05
2017-11-30T13:56:13.416Z,99902.64
2017-11-30T13:58:47.827Z,99902.67
2017-11-30T14:01:27.212Z,99895.47
2017-11-30T14:04:08.307Z,99894.00
2017-11-30T14:06:47.128Z,99903.33
2017-11-30T14:09:25.358Z,99900.23
2017-11-30T14:12:01.420Z,99900.81
2017-11-30T14:14:34.042Z,99910.25
2017-11-30T14:17:05.959Z,99902.20
2017-11-30T14:19:37.274Z,99912.34
2017-11-30T14:22:11.705Z,99883.52
2017-11-30T14:24:45.595Z,99911.04
2017-11-30T14:27:18.625Z,99903.69
2017-11-30T14:29:58.949Z,99904.22
2017-11-30T14:32:33.596Z,99910.97
2017-11-30T14:35:09.249Z,99912.98
2017-11-30T14:37:43.924Z,99904.08
2017-11-30T14:40:20.736Z,99907.06
2017-11-30T14:42:59.154Z,99907.13
2017-11-30T14:45:50.442Z,99883.45
2017-11-30T14:48:24.648Z,99912.73
2017-11-30T14:50:57.859Z,99913.95
2017-11-30T14:56:21.121Z,99913.27
2017-11-30T14:58:58.136Z,99916.00
2017-11-30T15:01:36.519Z,99918.75
2017-11-30T15:04:16.523Z,99915.25
2017-11-30T15:06:51.220Z,99910.07
2017-11-30T15:09:32.826Z,99916.97
2017-11-30T15:12:21.784Z,99919.17
2017-11-30T15:19:09.227Z,99921.16
2017-11-30T15:22:01.421Z,99919.44
2017-11-30T15:24:36.831Z,99924.03
2017-11-30T15:27:13.728Z,99923.97
2017-11-30T15:29:48.923Z,99923.23
2017-11-30T15:32:24.824Z,99912.34
2017-11-30T15:35:13.658Z,99931.14
2017-11-30T15:37:48.924Z,99929.32
2017-11-30T15:40:22.025Z,99920.77
2017-11-30T15:42:56.062Z,99926.54
2017-11-30T15:45:28.514Z,99908.53
2017-11-30T15:48:06.424Z,99928.81
2017-11-30T15:50:38.723Z,99931.59
2017-11-30T15:53:17.608Z,99928.12
2017-11-30T15:55:53.158Z,99929.59
2017-11-30T15:58:24.696Z,99935.77
2017-11-30T16:00:55.852Z,99927.20
2017-11-30T16:03:31.031Z,99927.58
2017-11-30T16:06:09.812Z,99925.39
2017-11-30T16:08:43.016Z,99934.61
2017-11-30T16:11:26.720Z,99927.70
2017-11-30T16:13:59.870Z,99925.35
2017-11-30T16:16:41.527Z,99925.14
2017-11-30T16:19:17.334Z,99921.14
2017-11-30T16:21:56.061Z,99921.47
2017-11-30T16:24:30.680Z,99938.17
2017-11-30T16:27:02.241Z,99943.55
2017-11-30T16:29:35.545Z,99939.00
2017-11-30T16:32:17.141Z,99932.13
2017-11-30T16:34:51.356Z,99937.48
2017-11-30T16:37:25.924Z,99940.45
2017-11-30T16:39:57.208Z,99935.77
2017-11-30T16:47:50.559Z,99923.84
2017-11-30T16:50:25.944Z,99935.32
2017-11-30T16:53:00.906Z,99941.81
2017-11-30T16:55:31.872Z,99941.38
2017-11-30T17:00:44.148Z,99938.02
2017-11-30T17:03:17.151Z,99945.97
2017-11-30T17:05:53.068Z,99947.78
2017-11-30T17:08:24.386Z,99953.91
2017-11-30T17:10:58.168Z,99945.38
2017-11-30T17:13:30.764Z,99951.53
2017-11-30T17:16:10.158Z,99948.87
2017-11-30T17:18:41.845Z,99950.89
2017-11-30T17:21:13.374Z,99953.32
2017-11-30T17:23:49.354Z,99955.73
2017-11-30T17:26:20.221Z,99952.80
2017-11-30T17:28:51.991Z,99958.44
2017-11-30T17:31:28.270Z,99946.69
2017-11-30T17:34:01.625Z,99955.82
2017-11-30T17:36:33.689Z,99960.92
2017-11-30T17:39:07.388Z,99962.40
2017-11-30T17:41:41.702Z,99958.88
2017-11-30T17:44:17.001Z,99965.08
2017-11-30T17:46:48.025Z,99969.58
2017-11-30T17:49:22.118Z,99963.63
2017-11-30T17:51:59.189Z,99971.32
2017-11-30T17:54:30.809Z,99951.38
2017-11-30T17:57:04.798Z,99973.52
2017-11-30T17:59:38.671Z,99968.17
2017-11-30T18:02:12.870Z,99966.27
2017-11-30T18:04:46.368Z,99974.77
2017-11-30T18:07:18.563Z,99972.52
2017-11-30T18:09:54.849Z,99975.84
2017-11-30T18:12:29.035Z,99978.54
2017-11-30T18:15:07.045Z,99975.36
2017-11-30T18:17:38.565Z,99979.31
2017-11-30T18:20:18.532Z,99977.95
2017-11-30T18:24:02.509Z,99981.62
2017-11-30T18:26:35.063Z,99985.57
2017-11-30T18:29:05.537Z,99988.86
2017-11-30T18:31:43.206Z,99993.89
2017-11-30T18:37:11.103Z,99992.58
2017-11-30T18:39:47.036Z,99986.70
2017-11-30T18:42:19.955Z,99994.09
2017-11-30T18:44:56.365Z,100009.78
2017-11-30T18:47:30.578Z,100003.41
2017-11-30T18:50:02.869Z,100003.06
2017-11-30T18:52:33.803Z,100001.95
2017-11-30T18:55:06.096Z,100005.86
2017-11-30T18:57:44.891Z,100012.31
2017-11-30T19:00:18.565Z,100013.83
2017-11-30T19:02:50.329Z,100009.73
2017-11-30T19:05:20.981Z,100017.97
2017-11-30T19:07:52.127Z,100013.84
2017-11-30T19:10:22.585Z,100014.67
2017-11-30T19:12:53.182Z,100019.44
2017-11-30T19:15:24.643Z,100021.90
2017-11-30T19:17:55.027Z,100020.32
2017-11-30T19:20:29.323Z,100016.58
2017-11-30T19:23:03.392Z,100017.63
2017-11-30T19:25:38.500Z,100030.91
2017-11-30T19:28:10.693Z,100030.91
2017-11-30T19:30:43.706Z,100027.54
2017-11-30T19:33:15.504Z,100032.30
2017-11-30T19:35:48.788Z,100031.89
2017-11-30T19:38:19.190Z,100030.50
2017-11-30T19:40:50.127Z,100028.88
2017-11-30T19:43:22.806Z,100025.77
2017-11-30T19:46:08.212Z,100036.77
2017-11-30T19:48:45.212Z,100033.97
2017-11-30T19:51:16.500Z,100031.16
2017-11-30T19:53:51.483Z,100038.54
2017-11-30T19:56:29.404Z,100045.41
2017-11-30T19:59:00.423Z,100047.07
2017-11-30T20:01:32.596Z,100040.44
2017-11-30T20:04:05.405Z,100045.92
2017-11-30T20:06:39.190Z,100051.20
2017-11-30T20:09:11.695Z,100046.77
2017-11-30T20:11:47.188Z,100046.82
2017-11-30T20:16:59.798Z,100048.91
2017-11-30T20:19:35.009Z,100058.56
2017-11-30T20:22:10.800Z,100062.57
2017-11-30T20:24:44.606Z,100061.91
2017-11-30T20:27:17.306Z,100066.83
2017-11-30T20:29:49.789Z,100069.28
2017-11-30T20:32:32.325Z,100066.20
2017-11-30T20:35:06.918Z,100076.66
2017-11-30T20:37:40.297Z,100069.09
2017-11-30T20:40:25.538Z,100070.40
2017-11-30T20:42:57.349Z,100073.00
2017-11-30T20:45:29.625Z,100074.19
2017-11-30T20:48:05.409Z,100088.05
2017-11-30T20:50:36.265Z,100084.30
2017-11-30T20:53:08.648Z,100087.41
2017-11-30T20:55:41.414Z,100085.84
2017-11-30T20:58:13.288Z,100089.05
2017-11-30T21:00:46.905Z,100091.95
2017-11-30T21:03:29.029Z,100093.23
2017-11-30T21:06:03.014Z,100094.50
2017-11-30T21:08:35.932Z,100093.53
2017-11-30T21:11:10.083Z,100092.53
2017-11-30T21:13:44.905Z,100092.86
2017-11-30T21:16:18.437Z,100087.94
2017-11-30T21:18:51.321Z,100097.34
2017-11-30T21:21:24.127Z,100086.93
2017-11-30T21:23:56.226Z,100102.86
2017-11-30T21:26:29.029Z,100099.94
2017-11-30T21:29:02.144Z,100110.45
2017-11-30T21:31:35.541Z,100112.30
2017-11-30T21:34:10.156Z,100106.48
2017-11-30T21:36:42.163Z,100109.86
2017-11-30T21:39:13.768Z,100114.41
2017-11-30T21:41:53.388Z,100115.14
2017-11-30T21:44:31.160Z,100122.38
2017-11-30T21:47:05.873Z,100128.63
2017-11-30T21:49:39.866Z,100124.00
2017-11-30T21:52:14.577Z,100132.59
2017-11-30T21:54:48.696Z,100135.13
2017-11-30T21:57:23.833Z,100103.73
2017-11-30T21:59:57.614Z,100134.47
2017-11-30T22:02:28.974Z,100135.77
2017-11-30T22:05:03.978Z,100137.08
2017-11-30T22:07:40.254Z,100133.42
2017-11-30T22:10:12.559Z,100142.26
2017-11-30T22:12:44.206Z,100146.64
2017-11-30T22:15:19.233Z,100140.57
2017-11-30T22:17:54.223Z,100152.83
2017-11-30T22:20:27.365Z,100140.46
2017-11-30T22:23:05.692Z,100148.59
2017-11-30T22:25:40.692Z,100151.50
2017-11-30T22:28:17.362Z,100161.36
2017-11-30T22:30:53.465Z,100161.06
2017-11-30T22:33:27.085Z,100153.63
2017-11-30T22:36:00.284Z,100162.75
2017-11-30T22:38:30.891Z,100160.20
2017-11-30T22:41:10.479Z,100158.23
2017-11-30T22:43:43.054Z,100161.38
2017-11-30T22:46:15.081Z,100164.07
2017-11-30T22:48:55.077Z,100168.00
2017-11-30T22:51:31.760Z,100166.02
2017-11-30T22:54:05.894Z,100164.81
2017-11-30T22:56:39.590Z,100171.42
2017-11-30T22:59:20.353Z,100168.17
2017-11-30T23:01:58.597Z,100176.43
2017-11-30T23:04:31.982Z,100175.78
2017-11-30T23:07:04.869Z,100180.83
2017-11-30T23:09:36.978Z,100182.10
2017-11-30T23:12:09.340Z,100182.47
2017-11-30T23:14:42.509Z,100180.63
2017-11-30T23:17:15.428Z,100183.41
2017-11-30T23:20:01.212Z,100191.98
2017-11-30T23:22:33.537Z,100185.48
2017-11-30T23:25:07.044Z,100192.19
2017-11-30T23:27:42.580Z,100192.06
2017-11-30T23:30:19.371Z,100183.39
2017-11-30T23:35:38.189Z,100200.55
2017-11-30T23:38:09.552Z,100196.72
2017-11-30T23:40:47.136Z,100198.05
2017-11-30T23:43:22.565Z,100201.00
2017-11-30T23:45:54.031Z,100206.70
2017-11-30T23:48:24.649Z,100207.61
2017-11-30T23:50:58.447Z,100212.11
2017-11-30T23:53:31.862Z,100207.84
2017-11-30T23:56:03.508Z,100212.73
2017-11-30T23:58:39.023Z,100216.87
